createdAt,value
2023-09-12T00:01:13.690Z,93644.34
2023-09-12T00:03:41.496Z,93650.72
2023-09-12T00:06:08.945Z,93645.31
2023-09-12T00:08:36.326Z,93643.91
2023-09-12T00:11:07.702Z,93640.81
2023-09-12T00:13:35.156Z,93639.50
2023-09-12T00:16:03.401Z,93641.91
2023-09-12T00:18:31.297Z,93646.38
2023-09-12T00:21:02.199Z,93647.03
2023-09-12T00:23:29.894Z,93651.06
2023-09-12T00:25:58.548Z,93648.62
2023-09-12T00:28:26.097Z,93649.56
2023-09-12T00:30:54.103Z,93655.97
2023-09-12T00:33:22.033Z,93655.88
2023-09-12T00:35:49.505Z,93654.94
2023-09-12T00:38:16.822Z,93652.56
2023-09-12T00:40:44.464Z,93654.25
2023-09-12T00:43:12.068Z,93644.63
2023-09-12T00:45:39.819Z,93650.84
2023-09-12T00:48:09.166Z,93648.25
2023-09-12T00:50:37.924Z,93653.50
2023-09-12T00:53:05.776Z,93647.00
2023-09-12T00:55:36.224Z,93648.88
2023-09-12T00:58:04.102Z,93650.47
2023-09-12T01:00:31.873Z,93650.56
2023-09-12T01:02:59.851Z,93648.25
2023-09-12T01:05:28.450Z,93659.78
2023-09-12T01:07:57.038Z,93657.72
2023-09-12T01:10:24.919Z,93652.44
2023-09-12T01:12:53.423Z,93656.00
2023-09-12T01:15:21.401Z,93652.16
2023-09-12T01:17:50.851Z,93656.03
2023-09-12T01:20:35.441Z,93650.09
2023-09-12T01:23:41.889Z,93653.75
2023-09-12T01:26:12.227Z,93658.00
2023-09-12T01:28:44.333Z,93655.91
2023-09-12T01:31:14.466Z,93662.94
2023-09-12T01:33:42.344Z,93672.84
2023-09-12T01:36:11.714Z,93662.25
2023-09-12T01:38:39.401Z,93672.41
2023-09-12T01:41:08.099Z,93665.41
2023-09-12T01:43:37.690Z,93670.38
2023-09-12T01:46:05.259Z,93671.44
2023-09-12T01:48:35.979Z,93667.78
2023-09-12T01:51:05.544Z,93670.66
2023-09-12T01:53:35.664Z,93672.91
2023-09-12T01:56:03.319Z,93672.81
2023-09-12T01:58:32.744Z,93667.47
2023-09-12T02:01:00.840Z,93672.59
2023-09-12T02:03:28.760Z,93668.84
2023-09-12T02:05:56.212Z,93670.31
2023-09-12T02:08:23.653Z,93667.13
2023-09-12T02:10:51.412Z,93671.91
2023-09-12T02:13:18.983Z,93664.16
2023-09-12T02:15:46.562Z,93672.13
2023-09-12T02:18:14.526Z,93677.38
2023-09-12T02:20:47.051Z,93672.03
2023-09-12T02:23:16.457Z,93673.00
2023-09-12T02:25:44.244Z,93676.19
2023-09-12T02:28:11.726Z,93677.59
2023-09-12T02:30:42.148Z,93680.19
2023-09-12T02:33:10.730Z,93681.34
2023-09-12T02:35:38.205Z,93678.84
2023-09-12T02:38:05.599Z,93681.59
2023-09-12T02:40:33.434Z,93681.59
2023-09-12T02:43:00.899Z,93682.94
2023-09-12T02:45:28.626Z,93686.81
2023-09-12T02:47:56.601Z,93686.25
2023-09-12T02:50:24.146Z,93681.81
2023-09-12T02:52:51.671Z,93688.81
2023-09-12T02:55:19.589Z,93684.75
2023-09-12T02:57:48.302Z,93682.69
2023-09-12T03:00:15.942Z,93686.31
2023-09-12T03:02:43.863Z,93683.41
2023-09-12T03:05:12.162Z,93684.53
2023-09-12T03:07:39.482Z,93682.63
2023-09-12T03:10:07.686Z,93690.69
2023-09-12T03:12:38.320Z,93687.19
2023-09-12T03:15:08.945Z,93682.97
2023-09-12T03:17:38.503Z,93679.75
2023-09-12T03:20:09.574Z,93668.91
2023-09-12T03:22:40.135Z,93686.72
2023-09-12T03:25:08.296Z,93686.28
2023-09-12T03:27:35.921Z,93679.88
2023-09-12T03:30:05.276Z,93678.50
2023-09-12T03:32:33.126Z,93689.19
2023-09-12T03:35:00.662Z,93688.94
2023-09-12T03:37:29.834Z,93691.75
2023-09-12T03:39:58.133Z,93689.16
2023-09-12T03:42:31.983Z,93693.97
2023-09-12T03:45:06.947Z,93696.25
2023-09-12T03:47:34.439Z,93696.16
2023-09-12T03:50:02.101Z,93698.13
2023-09-12T03:52:30.108Z,93699.59
2023-09-12T03:54:58.904Z,93693.00
2023-09-12T03:57:29.122Z,93698.50
2023-09-12T03:59:57.140Z,93703.81
2023-09-12T04:02:24.868Z,93699.63
2023-09-12T04:04:53.364Z,93704.13
2023-09-12T04:07:20.982Z,93690.09
2023-09-12T04:09:48.469Z,93692.84
2023-09-12T04:12:16.274Z,93697.66
2023-09-12T04:14:43.962Z,93696.50
2023-09-12T04:17:11.547Z,93696.34
2023-09-12T04:19:39.258Z,93699.28
2023-09-12T04:22:07.069Z,93705.41
2023-09-12T04:24:34.748Z,93705.37
2023-09-12T04:27:02.730Z,93704.38
2023-09-12T04:29:30.488Z,93702.63
2023-09-12T04:32:00.940Z,93703.34
2023-09-12T04:34:29.126Z,93708.56
2023-09-12T04:36:56.623Z,93707.59
2023-09-12T04:39:24.522Z,93704.78
2023-09-12T04:41:52.357Z,93703.59
2023-09-12T04:44:19.774Z,93705.44
2023-09-12T04:46:47.832Z,93714.88
2023-09-12T04:49:15.938Z,93705.59
2023-09-12T04:51:44.234Z,93710.28
2023-09-12T04:54:11.920Z,93702.44
2023-09-12T04:56:39.703Z,93711.63
2023-09-12T04:59:08.064Z,93709.28
2023-09-12T05:01:35.684Z,93706.22
2023-09-12T05:04:04.535Z,93704.50
2023-09-12T05:06:35.642Z,93706.63
2023-09-12T05:09:04.489Z,93699.88
2023-09-12T05:11:32.174Z,93710.41
2023-09-12T05:14:01.173Z,93701.66
2023-09-12T05:16:29.055Z,93705.87
2023-09-12T05:18:56.776Z,93703.56
2023-09-12T05:21:24.750Z,93714.19
2023-09-12T05:23:52.787Z,93711.75
2023-09-12T05:26:23.286Z,93717.50
2023-09-12T05:28:51.657Z,93703.81
2023-09-12T05:31:20.223Z,93704.72
2023-09-12T05:33:48.382Z,93710.44
2023-09-12T05:36:16.055Z,93698.69
2023-09-12T05:38:44.163Z,93711.03
2023-09-12T05:41:11.866Z,93708.69
2023-09-12T05:43:39.245Z,93706.94
2023-09-12T05:46:07.046Z,93699.56
2023-09-12T05:48:34.641Z,93700.66
2023-09-12T05:51:02.191Z,93693.78
2023-09-12T05:53:31.824Z,93695.56
2023-09-12T05:55:59.344Z,93691.41
2023-09-12T05:58:27.073Z,93699.34
2023-09-12T06:00:54.962Z,93690.41
2023-09-12T06:03:24.092Z,93691.69
2023-09-12T06:05:52.322Z,93699.44
2023-09-12T06:08:19.792Z,93695.59
2023-09-12T06:10:47.676Z,93696.44
2023-09-12T06:13:15.082Z,93695.91
2023-09-12T06:15:43.035Z,93697.22
2023-09-12T06:18:11.025Z,93693.59
2023-09-12T06:20:39.237Z,93698.50
2023-09-12T06:23:06.776Z,93698.41
2023-09-12T06:25:36.649Z,93698.37
2023-09-12T06:28:04.582Z,93694.31
2023-09-12T06:30:32.098Z,93697.50
2023-09-12T06:33:02.524Z,93689.59
2023-09-12T06:35:30.481Z,93693.44
2023-09-12T06:37:58.189Z,93694.25
2023-09-12T06:40:26.019Z,93693.31
2023-09-12T06:42:53.374Z,93686.66
2023-09-12T06:45:20.824Z,93686.31
2023-09-12T06:47:48.744Z,93683.91
2023-09-12T06:50:16.605Z,93689.84
2023-09-12T06:52:44.500Z,93687.59
2023-09-12T06:55:12.488Z,93690.31
2023-09-12T06:57:40.682Z,93687.41
2023-09-12T07:00:08.957Z,93684.28
2023-09-12T07:02:36.803Z,93686.12
2023-09-12T07:05:05.151Z,93683.25
2023-09-12T07:07:32.704Z,93691.72
2023-09-12T07:10:16.155Z,93684.56
2023-09-12T07:12:44.101Z,93684.53
2023-09-12T07:15:11.936Z,93678.88
2023-09-12T07:17:39.420Z,93678.28
2023-09-12T07:20:12.737Z,93687.69
2023-09-12T07:22:43.726Z,93681.09
2023-09-12T07:25:13.226Z,93683.31
2023-09-12T07:27:41.219Z,93683.44
2023-09-12T07:30:09.414Z,93680.28
2023-09-12T07:32:37.138Z,93677.63
2023-09-12T07:35:05.537Z,93678.94
2023-09-12T07:37:33.509Z,93673.56
2023-09-12T07:40:01.238Z,93677.78
2023-09-12T07:42:29.591Z,93677.28
2023-09-12T07:44:57.014Z,93670.50
2023-09-12T07:47:24.424Z,93665.25
2023-09-12T07:49:55.230Z,93670.91
2023-09-12T07:52:23.946Z,93668.47
2023-09-12T07:54:54.041Z,93666.56
2023-09-12T07:57:21.582Z,93667.31
2023-09-12T07:59:48.932Z,93662.13
2023-09-12T08:02:16.840Z,93658.69
2023-09-12T08:04:44.770Z,93658.53
2023-09-12T08:07:12.502Z,93659.13
2023-09-12T08:09:54.352Z,93655.72
2023-09-12T08:12:23.984Z,93653.25
2023-09-12T08:14:51.361Z,93657.88
2023-09-12T08:17:19.012Z,93654.47
2023-09-12T08:19:46.926Z,93652.59
2023-09-12T08:22:14.779Z,93655.31
2023-09-12T08:24:42.449Z,93653.91
2023-09-12T08:27:11.309Z,93643.94
2023-09-12T08:29:39.578Z,93647.28
2023-09-12T08:32:07.174Z,93652.50
2023-09-12T08:34:35.080Z,93647.47
2023-09-12T08:37:02.645Z,93648.81
2023-09-12T08:39:43.321Z,93640.06
2023-09-12T08:42:16.168Z,93640.34
2023-09-12T08:44:44.677Z,93638.63
2023-09-12T08:47:13.618Z,93643.13
2023-09-12T08:49:43.836Z,93638.13
2023-09-12T08:52:11.729Z,93636.25
2023-09-12T08:54:39.167Z,93637.66
2023-09-12T08:57:08.447Z,93642.50
2023-09-12T08:59:38.537Z,93635.28
2023-09-12T09:02:10.236Z,93631.91
2023-09-12T09:04:40.676Z,93627.47
2023-09-12T09:07:10.340Z,93629.34
2023-09-12T09:09:38.140Z,93634.53
2023-09-12T09:12:09.992Z,93632.38
2023-09-12T09:14:37.995Z,93630.03
2023-09-12T09:17:05.569Z,93632.06
2023-09-12T09:19:51.126Z,93636.31
2023-09-12T09:22:18.989Z,93638.38
2023-09-12T09:24:46.492Z,93631.59
2023-09-12T09:27:34.194Z,93634.06
2023-09-12T09:30:02.068Z,93632.31
2023-09-12T09:32:29.511Z,93629.47
2023-09-12T09:34:56.893Z,93627.16
2023-09-12T09:37:24.731Z,93626.44
2023-09-12T09:39:53.739Z,93619.63
2023-09-12T09:42:21.434Z,93616.25
2023-09-12T09:44:50.206Z,93621.44
2023-09-12T09:47:20.248Z,93623.50
2023-09-12T09:49:48.786Z,93618.69
2023-09-12T09:52:16.494Z,93614.81
2023-09-12T09:54:47.099Z,93615.16
2023-09-12T09:57:14.466Z,93616.56
2023-09-12T09:59:42.463Z,93616.94
2023-09-12T10:02:20.669Z,93614.28
2023-09-12T10:05:00.410Z,93606.25
2023-09-12T10:07:29.978Z,93607.28
2023-09-12T10:09:59.399Z,93608.41
2023-09-12T10:12:29.986Z,93612.66
2023-09-12T10:15:00.712Z,93606.37
2023-09-12T10:17:37.049Z,93603.38
2023-09-12T10:20:12.669Z,93594.88
2023-09-12T10:23:38.372Z,93592.25
2023-09-12T10:26:06.582Z,93592.38
2023-09-12T10:28:34.355Z,93593.53
2023-09-12T10:31:03.200Z,93587.50
2023-09-12T10:33:32.830Z,93590.00
2023-09-12T10:36:01.107Z,93592.81
2023-09-12T10:38:31.366Z,93590.44
2023-09-12T10:41:01.996Z,93585.84
2023-09-12T10:43:31.263Z,93578.44
2023-09-12T10:46:00.727Z,93579.25
2023-09-12T10:48:28.173Z,93579.34
2023-09-12T10:51:00.696Z,93570.03
2023-09-12T10:53:31.312Z,93571.00
2023-09-12T10:56:14.042Z,93575.75
2023-09-12T10:59:07.746Z,93566.94
2023-09-12T11:01:43.700Z,93565.72
2023-09-12T11:04:20.680Z,93558.53
2023-09-12T11:06:51.466Z,93554.16
2023-09-12T11:09:23.462Z,93548.81
2023-09-12T11:11:56.907Z,93545.78
2023-09-12T11:14:25.613Z,93548.00
2023-09-12T11:17:19.294Z,93545.34
2023-09-12T11:19:54.551Z,93537.87
2023-09-12T11:22:30.546Z,93538.16
2023-09-12T11:24:58.553Z,93547.06
2023-09-12T11:27:32.408Z,93543.19
2023-09-12T11:30:07.354Z,93539.59
2023-09-12T11:32:38.242Z,93532.59
2023-09-12T11:35:08.556Z,93536.13
2023-09-12T11:37:39.090Z,93530.78
2023-09-12T11:40:12.983Z,93526.72
2023-09-12T11:42:44.905Z,93526.12
2023-09-12T11:45:13.131Z,93518.69
2023-09-12T11:47:44.767Z,93520.81
2023-09-12T11:50:36.808Z,93512.69
2023-09-12T11:53:07.068Z,93514.28
2023-09-12T11:55:46.699Z,93517.63
2023-09-12T11:58:19.660Z,93514.53
2023-09-12T12:00:51.257Z,93515.59
2023-09-12T12:03:23.789Z,93510.28
2023-09-12T12:05:52.681Z,93515.09
2023-09-12T12:10:52.306Z,93511.09
2023-09-12T12:13:21.283Z,93512.50
2023-09-12T12:15:49.112Z,93508.13
2023-09-12T12:18:16.761Z,93501.81
2023-09-12T12:20:44.600Z,93491.13
2023-09-12T12:23:12.399Z,93502.34
2023-09-12T12:25:39.799Z,93500.91
2023-09-12T12:28:07.555Z,93500.41
2023-09-12T12:30:36.890Z,93498.63
2023-09-12T12:33:37.560Z,93488.25
2023-09-12T12:36:04.032Z,93490.88
2023-09-12T12:38:46.666Z,93494.06
2023-09-12T12:41:41.860Z,93496.97
2023-09-12T12:44:17.309Z,93491.47
2023-09-12T12:46:52.004Z,93481.81
2023-09-12T12:49:24.389Z,93489.03
2023-09-12T12:51:54.471Z,93484.13
2023-09-12T12:54:24.518Z,93480.19
2023-09-12T12:56:54.291Z,93485.81
2023-09-12T12:59:21.676Z,93480.22
2023-09-12T13:01:51.135Z,93475.59
2023-09-12T13:04:20.530Z,93477.75
2023-09-12T13:06:48.158Z,93479.50
2023-09-12T13:09:18.231Z,93474.41
2023-09-12T13:11:47.041Z,93478.56
2023-09-12T13:14:15.659Z,93473.91
2023-09-12T13:16:43.324Z,93470.47
2023-09-12T13:19:12.622Z,93475.47
2023-09-12T13:21:40.461Z,93469.81
2023-09-12T13:24:08.177Z,93476.34
2023-09-12T13:26:35.962Z,93474.16
2023-09-12T13:29:03.997Z,93468.44
2023-09-12T13:31:31.455Z,93465.97
2023-09-12T13:33:59.414Z,93471.81
2023-09-12T13:36:26.851Z,93470.50
2023-09-12T13:38:54.199Z,93472.50
2023-09-12T13:41:23.555Z,93467.06
2023-09-12T13:43:50.919Z,93468.59
2023-09-12T13:46:18.417Z,93465.34
2023-09-12T13:48:47.669Z,93467.22
2023-09-12T13:51:16.272Z,93468.72
2023-09-12T13:53:43.992Z,93473.69
2023-09-12T13:56:11.735Z,93463.06
2023-09-12T13:58:42.976Z,93468.34
2023-09-12T14:01:16.703Z,93469.00
2023-09-12T14:03:55.125Z,93466.09
2023-09-12T14:06:23.333Z,93470.19
2023-09-12T14:08:50.938Z,93469.28
2023-09-12T14:11:30.385Z,93470.53
2023-09-12T14:14:11.132Z,93460.75
2023-09-12T14:16:42.084Z,93466.16
2023-09-12T14:19:11.873Z,93473.44
2023-09-12T14:21:39.660Z,93470.22
2023-09-12T14:24:08.171Z,93466.78
2023-09-12T14:26:35.580Z,93466.69
2023-09-12T14:29:03.380Z,93464.16
2023-09-12T14:31:31.407Z,93457.59
2023-09-12T14:33:59.260Z,93450.56
2023-09-12T14:36:26.627Z,93451.09
2023-09-12T14:38:54.309Z,93458.59
2023-09-12T14:41:21.692Z,93450.06
2023-09-12T14:43:49.044Z,93457.75
2023-09-12T14:46:16.880Z,93459.66
2023-09-12T14:48:56.500Z,93463.63
2023-09-12T14:51:33.760Z,93458.06
2023-09-12T14:54:02.784Z,93460.75
2023-09-12T14:56:31.695Z,93459.44
2023-09-12T14:58:59.064Z,93450.97
2023-09-12T15:01:26.604Z,93456.78
2023-09-12T15:03:54.510Z,93456.41
2023-09-12T15:06:22.486Z,93459.84
2023-09-12T15:08:53.202Z,93468.91
2023-09-12T15:11:22.010Z,93463.56
2023-09-12T15:13:50.051Z,93467.38
2023-09-12T15:16:18.861Z,93468.03
2023-09-12T15:18:47.751Z,93465.31
2023-09-12T15:21:15.251Z,93474.75
2023-09-12T15:23:42.960Z,93465.38
2023-09-12T15:26:11.152Z,93472.41
2023-09-12T15:28:38.877Z,93476.31
2023-09-12T15:31:06.586Z,93467.50
2023-09-12T15:33:34.487Z,93469.03
2023-09-12T15:36:02.249Z,93465.94
2023-09-12T15:38:30.103Z,93465.81
2023-09-12T15:40:59.676Z,93467.19
2023-09-12T15:43:28.067Z,93465.84
2023-09-12T15:45:55.812Z,93464.72
2023-09-12T15:48:23.864Z,93469.81
2023-09-12T15:50:52.130Z,93475.84
2023-09-12T15:53:19.535Z,93477.09
2023-09-12T15:55:49.890Z,93475.03
2023-09-12T15:58:17.439Z,93475.03
2023-09-12T16:00:44.784Z,93474.06
2023-09-12T16:03:12.815Z,93477.59
2023-09-12T16:05:40.544Z,93477.03
2023-09-12T16:08:09.080Z,93485.16
2023-09-12T16:10:37.951Z,93489.84
2023-09-12T16:13:05.789Z,93488.09
2023-09-12T16:15:35.490Z,93491.03
2023-09-12T16:18:03.586Z,93489.28
2023-09-12T16:20:30.908Z,93491.53
2023-09-12T16:22:58.323Z,93497.91
2023-09-12T16:25:26.066Z,93493.22
2023-09-12T16:27:54.036Z,93505.41
2023-09-12T16:30:21.694Z,93499.25
2023-09-12T16:32:49.486Z,93501.91
2023-09-12T16:35:17.121Z,93503.34
2023-09-12T16:37:44.498Z,93501.47
2023-09-12T16:40:12.808Z,93506.09
2023-09-12T16:42:40.600Z,93508.69
2023-09-12T16:49:24.464Z,93512.88
2023-09-12T16:52:10.825Z,93513.59
2023-09-12T17:04:12.527Z,93524.63
2023-09-12T17:08:03.970Z,93522.66
2023-09-12T17:20:15.120Z,93545.25
2023-09-12T17:22:43.163Z,93550.72
2023-09-12T17:25:13.980Z,93551.00
2023-09-12T17:27:41.918Z,93551.94
2023-09-12T17:30:11.648Z,93551.91
2023-09-12T17:32:39.118Z,93547.75
2023-09-12T17:35:06.903Z,93557.47
2023-09-12T17:37:35.209Z,93562.44
2023-09-12T17:40:02.829Z,93568.44
2023-09-12T17:42:32.102Z,93574.47
2023-09-12T17:45:00.306Z,93571.53
2023-09-12T17:47:28.379Z,93576.56
2023-09-12T17:49:57.657Z,93576.47
2023-09-12T17:52:25.487Z,93574.13
2023-09-12T17:54:52.930Z,93578.75
2023-09-12T17:57:20.418Z,93586.53
2023-09-12T17:59:49.737Z,93579.44
2023-09-12T18:02:17.182Z,93591.59
2023-09-12T18:04:45.136Z,93588.81
2023-09-12T18:07:12.773Z,93592.88
2023-09-12T18:09:40.730Z,93597.53
2023-09-12T18:12:08.574Z,93601.78
2023-09-12T18:14:36.108Z,93607.47
2023-09-12T18:17:03.917Z,93606.25
2023-09-12T18:19:32.105Z,93606.19
2023-09-12T18:22:01.256Z,93612.38
2023-09-12T18:24:28.887Z,93607.41
2023-09-12T18:26:59.838Z,93616.69
2023-09-12T18:29:27.400Z,93611.16
2023-09-12T18:31:55.737Z,93608.22
2023-09-12T18:34:23.521Z,93615.81
2023-09-12T18:36:51.130Z,93617.31
2023-09-12T18:39:19.365Z,93613.16
2023-09-12T18:41:48.028Z,93618.56
2023-09-12T18:44:15.668Z,93614.97
2023-09-12T18:46:43.333Z,93620.44
2023-09-12T18:49:12.009Z,93621.97
2023-09-12T18:51:39.756Z,93622.50
2023-09-12T18:54:07.362Z,93631.91
2023-09-12T18:56:35.124Z,93634.66
2023-09-12T18:59:03.056Z,93640.66
2023-09-12T19:01:30.797Z,93642.06
2023-09-12T19:03:58.759Z,93633.94
2023-09-12T19:06:26.278Z,93640.41
2023-09-12T19:08:53.729Z,93638.41
2023-09-12T19:11:23.464Z,93639.53
2023-09-12T19:13:50.919Z,93638.22
2023-09-12T19:16:18.556Z,93644.78
2023-09-12T19:18:47.509Z,93647.72
2023-09-12T19:21:14.936Z,93654.47
2023-09-12T19:23:42.696Z,93661.63
2023-09-12T19:26:10.681Z,93653.34
2023-09-12T19:28:38.129Z,93649.16
2023-09-12T19:31:05.709Z,93654.97
2023-09-12T19:33:33.738Z,93660.19
2023-09-12T19:36:01.291Z,93659.66
2023-09-12T19:38:28.724Z,93661.75
2023-09-12T19:41:00.978Z,93667.34
2023-09-12T19:43:28.494Z,93672.97
2023-09-12T19:45:57.587Z,93669.63
2023-09-12T19:48:25.271Z,93679.41
2023-09-12T19:50:52.839Z,93677.81
2023-09-12T19:53:20.899Z,93679.84
2023-09-12T19:55:59.463Z,93678.31
2023-09-12T19:58:27.850Z,93684.78
2023-09-12T20:00:59.879Z,93683.44
2023-09-12T20:03:28.597Z,93682.69
2023-09-12T20:05:56.079Z,93686.66
2023-09-12T20:08:24.254Z,93684.25
2023-09-12T20:10:52.405Z,93683.19
2023-09-12T20:13:19.987Z,93688.50
2023-09-12T20:15:47.526Z,93696.44
2023-09-12T20:18:15.399Z,93693.00
2023-09-12T20:20:46.895Z,93685.88
2023-09-12T20:23:14.842Z,93701.75
2023-09-12T20:25:43.499Z,93692.78
2023-09-12T20:28:13.103Z,93696.19
2023-09-12T20:30:41.367Z,93699.09
2023-09-12T20:33:08.906Z,93701.22
2023-09-12T20:35:36.666Z,93696.69
2023-09-12T20:38:06.169Z,93708.56
2023-09-12T20:40:34.016Z,93701.44
2023-09-12T20:43:01.646Z,93703.31
2023-09-12T20:45:29.647Z,93707.25
2023-09-12T20:47:57.110Z,93705.69
2023-09-12T20:50:28.582Z,93708.59
2023-09-12T20:53:06.303Z,93707.00
2023-09-12T20:55:38.620Z,93697.94
2023-09-12T20:58:06.740Z,93703.13
2023-09-12T21:00:34.499Z,93714.22
2023-09-12T21:03:02.120Z,93714.53
2023-09-12T21:05:29.986Z,93713.72
2023-09-12T21:07:58.250Z,93716.88
2023-09-12T21:10:25.705Z,93717.31
2023-09-12T21:12:53.485Z,93715.47
2023-09-12T21:15:23.962Z,93710.78
2023-09-12T21:17:52.013Z,93707.78
2023-09-12T21:20:20.136Z,93714.16
2023-09-12T21:22:47.690Z,93717.66
2023-09-12T21:25:15.217Z,93714.03
2023-09-12T21:27:43.033Z,93718.69
2023-09-12T21:30:11.319Z,93716.06
2023-09-12T21:32:38.718Z,93719.97
2023-09-12T21:35:16.222Z,93720.50
2023-09-12T21:37:44.865Z,93713.78
2023-09-12T21:40:14.240Z,93715.94
2023-09-12T21:42:42.109Z,93718.00
2023-09-12T21:45:14.732Z,93727.25
2023-09-12T21:47:44.143Z,93723.78
2023-09-12T21:50:11.616Z,93720.44
2023-09-12T21:52:39.439Z,93724.81
2023-09-12T21:55:08.601Z,93720.16
2023-09-12T21:57:36.555Z,93727.69
2023-09-12T22:00:24.681Z,93721.22
2023-09-12T22:02:53.407Z,93729.84
2023-09-12T22:05:21.216Z,93724.72
2023-09-12T22:07:49.228Z,93732.06
2023-09-12T22:10:17.902Z,93727.28
2023-09-12T22:12:46.179Z,93725.12
2023-09-12T22:15:13.852Z,93729.38
2023-09-12T22:17:41.438Z,93734.28
2023-09-12T22:20:13.936Z,93733.44
2023-09-12T22:22:43.988Z,93728.75
2023-09-12T22:25:12.100Z,93741.63
2023-09-12T22:27:40.684Z,93738.28
2023-09-12T22:30:09.252Z,93739.31
2023-09-12T22:32:38.416Z,93736.78
2023-09-12T22:35:06.083Z,93736.37
2023-09-12T22:37:33.641Z,93726.66
2023-09-12T22:40:01.064Z,93722.09
2023-09-12T22:42:28.807Z,93727.91
2023-09-12T22:44:56.393Z,93729.88
2023-09-12T22:47:23.753Z,93736.53
2023-09-12T22:49:52.582Z,93737.66
2023-09-12T22:52:20.690Z,93729.63
2023-09-12T22:54:48.108Z,93732.03
2023-09-12T22:57:15.497Z,93731.00
2023-09-12T22:59:43.215Z,93733.91
2023-09-12T23:02:10.591Z,93732.78
2023-09-12T23:04:38.036Z,93730.69
2023-09-12T23:07:05.838Z,93730.16
2023-09-12T23:09:33.414Z,93725.56
2023-09-12T23:12:00.795Z,93730.28
2023-09-12T23:14:28.567Z,93730.81
2023-09-12T23:16:56.007Z,93729.28
2023-09-12T23:19:23.580Z,93731.19
2023-09-12T23:21:51.452Z,93729.28
2023-09-12T23:24:18.873Z,93735.25
2023-09-12T23:26:46.332Z,93729.31
2023-09-12T23:29:14.039Z,93736.16
2023-09-12T23:31:41.479Z,93729.03
2023-09-12T23:34:08.917Z,93734.00
2023-09-12T23:36:36.778Z,93724.62
2023-09-12T23:39:05.798Z,93735.19
2023-09-12T23:41:33.209Z,93731.53
2023-09-12T23:44:00.810Z,93735.75
2023-09-12T23:46:28.614Z,93732.66
2023-09-12T23:48:55.971Z,93728.84
2023-09-12T23:51:23.720Z,93739.50
2023-09-12T23:53:50.963Z,93737.59
2023-09-12T23:56:18.268Z,93739.03
2023-09-12T23:58:45.984Z,93731.59
